Time;durP1;ratioP1;P1;durP2;ratioP2;P2;SDS_P1;SDS_P2;PMS_P1;PMS_P2;Temp;Humidity;BMP_temperature;BMP_pressure;BME280_temperature;BME280_humidity;BME280_pressure;Samples;Min_cycle;Max_cycle;Signal;HPM_P1;HPM_P2
2023/06/18 00:02:08;;;;;;;;;;;;;;;29.24;74.30;98710.66;5023686;28;19935;-43
2023/06/18 00:04:33;;;;;;;;;;;;;;;29.55;72.96;98699.16;5023013;28;19928;-43
2023/06/18 00:06:59;;;;;;;;;;;;;;;28.95;74.31;98711.28;5023485;28;19921;-43
2023/06/18 00:09:24;;;;;;;;;;;;;;;28.57;77.24;98721.72;5023418;28;19920;-43
2023/06/18 00:11:49;;;;;;;;;;;;;;;28.34;76.96;98722.41;5019324;28;20014;-43
2023/06/18 00:14:15;;;;;;;;;;;;;;;28.34;76.88;98717.13;5021696;28;19925;-43
2023/06/18 00:16:40;;;;;;;;;;;;;;;28.39;75.56;98713.16;5022058;28;19925;-43
2023/06/18 00:19:05;;;;;;;;;;;;;;;28.14;78.02;98721.16;5022338;28;19963;-43
2023/06/18 00:21:31;;;;;;;;;;;;;;;28.34;78.06;98717.13;5022628;28;20843;-43
2023/06/18 00:23:57;;;;;;;;;;;;;;;28.93;75.57;98697.38;5018939;28;20341;-43
2023/06/18 00:26:25;;;;;;;;;;;;;;;29.14;74.43;98696.78;5017813;28;19932;-43
2023/06/18 00:28:50;;;;;;;;;;;;;;;29.14;73.47;98692.31;5020295;28;19925;-43
2023/06/18 00:31:15;;;;;;;;;;;;;;;29.19;72.29;98686.47;5020108;28;19921;-43
2023/06/18 00:33:40;;;;;;;;;;;;;;;29.46;72.22;98690.41;5020728;28;20377;-43
2023/06/18 00:36:07;;;;;;;;;;;;;;;29.47;70.85;98691.25;5021755;28;19940;-43
2023/06/18 00:38:33;;;;;;;;;;;;;;;29.32;71.71;98693.84;5022360;28;20305;-43
2023/06/18 00:40:59;;;;;;;;;;;;;;;29.34;71.07;98686.53;5021423;28;19928;-43
2023/06/18 00:43:27;;;;;;;;;;;;;;;29.08;72.53;98687.72;5021128;28;19920;-43
2023/06/18 00:45:53;;;;;;;;;;;;;;;29.16;72.71;98694.78;5020589;28;19947;-43
2023/06/18 00:48:18;;;;;;;;;;;;;;;28.90;73.08;98697.75;5020480;28;20175;-42
2023/06/18 00:50:43;;;;;;;;;;;;;;;29.17;72.70;98694.63;5019285;28;19921;-43
2023/06/18 00:53:09;;;;;;;;;;;;;;;29.04;72.78;98691.69;5021955;28;19921;-43
2023/06/18 00:55:37;;;;;;;;;;;;;;;28.93;72.67;98689.44;5020639;28;19928;-42
2023/06/18 00:58:03;;;;;;;;;;;;;;;29.15;72.23;98691.31;5022158;28;19936;-42
2023/06/18 01:00:30;;;;;;;;;;;;;;;29.02;72.28;98682.25;5021179;28;20994;-43
2023/06/18 01:02:56;;;;;;;;;;;;;;;28.82;73.01;98693.28;5019497;28;20394;-43
2023/06/18 01:05:22;;;;;;;;;;;;;;;28.77;72.59;98685.03;5020789;28;19917;-42
2023/06/18 01:07:47;;;;;;;;;;;;;;;28.71;73.35;98697.16;5020882;28;19932;-43
2023/06/18 01:10:13;;;;;;;;;;;;;;;28.17;74.83;98697.00;5022907;28;19921;-43
2023/06/18 01:12:38;;;;;;;;;;;;;;;28.47;74.53;98695.44;5020158;28;20404;-43
2023/06/18 01:15:04;;;;;;;;;;;;;;;28.38;73.92;98695.63;5020632;28;19928;-43
2023/06/18 01:17:33;;;;;;;;;;;;;;;28.48;73.98;98686.47;5020756;28;19921;-43
2023/06/18 01:20:04;;;;;;;;;;;;;;;28.13;74.94;98695.69;5020954;28;19933;-42
2023/06/18 01:22:30;;;;;;;;;;;;;;;28.53;74.23;98680.66;5022370;28;20274;-43
2023/06/18 01:24:56;;;;;;;;;;;;;;;28.45;73.75;98683.34;5022346;28;20008;-42
2023/06/18 01:27:23;;;;;;;;;;;;;;;28.09;75.87;98691.72;5021442;28;19947;-42
2023/06/18 01:29:50;;;;;;;;;;;;;;;27.95;75.48;98688.75;5020397;28;19931;-42
2023/06/18 01:32:15;;;;;;;;;;;;;;;27.91;76.53;98694.53;5020137;28;19921;-42
2023/06/18 01:34:42;;;;;;;;;;;;;;;27.78;77.68;98700.34;5019745;28;19921;-42
2023/06/18 01:37:10;;;;;;;;;;;;;;;26.99;79.34;98720.22;5021437;28;19921;-42
2023/06/18 01:39:38;;;;;;;;;;;;;;;27.80;75.75;98677.16;5021291;28;20036;-42
2023/06/18 01:42:16;;;;;;;;;;;;;;;27.91;75.30;98671.53;5020721;28;19914;-42
2023/06/18 01:44:46;;;;;;;;;;;;;;;27.30;77.90;98697.50;5019965;28;19944;-42
2023/06/18 01:47:11;;;;;;;;;;;;;;;27.76;76.07;98681.16;5019940;28;20278;-42
2023/06/18 01:49:36;;;;;;;;;;;;;;;27.82;76.23;98685.75;5019397;28;19924;-43
2023/06/18 01:52:02;;;;;;;;;;;;;;;27.29;77.60;98695.03;5020372;28;20007;-42
2023/06/18 01:54:27;;;;;;;;;;;;;;;27.56;77.78;98690.41;5018749;28;20012;-42
2023/06/18 01:56:53;;;;;;;;;;;;;;;26.50;78.05;98703.16;5018560;28;19925;-42
2023/06/18 01:59:19;;;;;;;;;;;;;;;27.06;80.06;98700.91;5020778;28;19932;-42
2023/06/18 02:01:44;;;;;;;;;;;;;;;27.94;75.88;98663.28;5020231;28;20679;-42
2023/06/18 02:04:10;;;;;;;;;;;;;;;27.78;75.50;98673.03;5020600;28;20003;-42
2023/06/18 02:06:35;;;;;;;;;;;;;;;27.44;77.00;98677.53;5019991;28;20016;-42
2023/06/18 02:09:00;;;;;;;;;;;;;;;27.41;77.27;98677.84;5020836;28;20043;-42
2023/06/18 02:11:25;;;;;;;;;;;;;;;27.79;74.01;98649.06;5020717;28;19917;-42
2023/06/18 02:13:51;;;;;;;;;;;;;;;27.80;73.37;98648.03;5020149;28;19970;-42
2023/06/18 02:16:16;;;;;;;;;;;;;;;27.51;75.93;98673.22;5020705;28;19955;-42
2023/06/18 02:18:41;;;;;;;;;;;;;;;27.74;73.89;98657.50;5020870;28;19917;-42
2023/06/18 02:21:07;;;;;;;;;;;;;;;27.12;76.96;98680.94;5020443;28;19928;-42
2023/06/18 02:23:33;;;;;;;;;;;;;;;27.20;78.08;98686.25;5020115;28;20394;-42
2023/06/18 02:25:58;;;;;;;;;;;;;;;27.39;76.95;98673.69;5018366;28;19925;-42
2023/06/18 02:28:23;;;;;;;;;;;;;;;27.40;75.36;98659.50;5020696;28;20488;-42
2023/06/18 02:30:49;;;;;;;;;;;;;;;27.26;75.79;98674.22;5018019;28;19928;-42
2023/06/18 02:33:17;;;;;;;;;;;;;;;26.57;78.59;98687.56;5018315;28;19917;-43
2023/06/18 02:35:42;;;;;;;;;;;;;;;26.83;78.69;98681.34;5017898;28;19921;-42
2023/06/18 02:38:08;;;;;;;;;;;;;;;27.09;78.13;98674.13;5020576;28;19917;-42
2023/06/18 02:40:33;;;;;;;;;;;;;;;26.59;79.25;98688.19;5020331;28;19917;-42
2023/06/18 02:42:58;;;;;;;;;;;;;;;27.00;77.79;98664.53;5020274;28;19917;-42
2023/06/18 02:45:24;;;;;;;;;;;;;;;27.01;76.79;98660.09;5019589;28;19983;-42
2023/06/18 02:47:49;;;;;;;;;;;;;;;26.36;79.97;98676.53;5019432;28;19921;-42
2023/06/18 02:50:15;;;;;;;;;;;;;;;26.23;80.89;98680.44;5020275;28;19956;-42
2023/06/18 02:52:40;;;;;;;;;;;;;;;26.11;79.23;98672.91;5018668;28;19925;-42
2023/06/18 02:55:06;;;;;;;;;;;;;;;26.65;77.36;98655.88;5019748;28;20012;-42
2023/06/18 02:57:32;;;;;;;;;;;;;;;26.76;78.86;98667.13;5019981;28;20274;-42
2023/06/18 02:59:57;;;;;;;;;;;;;;;26.87;77.65;98654.44;5020134;28;20382;-42
2023/06/18 03:02:22;;;;;;;;;;;;;;;27.07;76.93;98648.84;5020130;28;19920;-42
2023/06/18 03:04:47;;;;;;;;;;;;;;;27.00;77.24;98651.31;5019942;28;19925;-42
2023/06/18 03:07:13;;;;;;;;;;;;;;;26.79;77.01;98657.06;5018806;28;19920;-42
2023/06/18 03:09:38;;;;;;;;;;;;;;;26.78;77.94;98654.59;5020406;28;20023;-42
2023/06/18 03:12:03;;;;;;;;;;;;;;;26.86;76.89;98639.56;5019597;28;19987;-42
2023/06/18 03:14:29;;;;;;;;;;;;;;;26.82;77.71;98655.91;5018986;28;19921;-42
2023/06/18 03:16:56;;;;;;;;;;;;;;;26.80;78.12;98655.25;5019526;28;19921;-42
2023/06/18 03:19:22;;;;;;;;;;;;;;;26.82;76.87;98645.34;5019729;28;19960;-42
2023/06/18 03:21:47;;;;;;;;;;;;;;;26.66;77.81;98646.97;5019764;28;20008;-42
2023/06/18 03:24:14;;;;;;;;;;;;;;;26.79;76.99;98646.50;5018743;28;20048;-42
2023/06/18 03:26:40;;;;;;;;;;;;;;;26.63;74.78;98636.72;5019821;28;20034;-42
2023/06/18 03:29:05;;;;;;;;;;;;;;;26.70;76.08;98650.09;5018673;28;20382;-42
2023/06/18 03:31:32;;;;;;;;;;;;;;;26.94;74.95;98633.50;5020295;28;19921;-43
2023/06/18 03:34:01;;;;;;;;;;;;;;;26.81;75.92;98636.59;5019439;28;19921;-43
2023/06/18 03:36:26;;;;;;;;;;;;;;;26.78;76.08;98650.13;5018894;28;19917;-42
2023/06/18 03:38:51;;;;;;;;;;;;;;;26.91;75.21;98636.44;5015900;28;19928;-47
2023/06/18 03:41:17;;;;;;;;;;;;;;;26.58;76.60;98641.66;5019982;28;20282;-43
2023/06/18 03:43:42;;;;;;;;;;;;;;;26.77;77.48;98650.28;5019597;28;21233;-46
2023/06/18 03:46:07;;;;;;;;;;;;;;;26.74;77.74;98648.81;5020776;28;21060;-43
2023/06/18 03:48:32;;;;;;;;;;;;;;;26.91;77.82;98657.59;5019219;28;20337;-42
2023/06/18 03:50:57;;;;;;;;;;;;;;;26.90;75.88;98640.09;5017191;28;20298;-42
2023/06/18 03:53:23;;;;;;;;;;;;;;;26.94;76.33;98641.41;5019342;28;19928;-43
2023/06/18 03:55:48;;;;;;;;;;;;;;;27.05;74.84;98630.53;5019533;28;20656;-42
2023/06/18 03:58:13;;;;;;;;;;;;;;;27.14;76.79;98649.84;5020183;28;20432;-42
2023/06/18 04:00:38;;;;;;;;;;;;;;;27.21;75.36;98644.78;5017140;28;20317;-42
2023/06/18 04:03:05;;;;;;;;;;;;;;;27.01;75.28;98650.34;5019544;28;20381;-42
2023/06/18 04:05:30;;;;;;;;;;;;;;;27.17;76.91;98651.38;5019991;28;20018;-42
2023/06/18 04:07:55;;;;;;;;;;;;;;;27.29;74.33;98634.22;5016958;28;19969;-42
2023/06/18 04:10:21;;;;;;;;;;;;;;;27.31;74.09;98634.88;5017318;28;19929;-42
2023/06/18 04:12:46;;;;;;;;;;;;;;;27.43;75.84;98652.06;5018597;28;20316;-42
2023/06/18 04:15:11;;;;;;;;;;;;;;;27.45;74.32;98644.78;5019409;28;19921;-42
2023/06/18 04:17:40;;;;;;;;;;;;;;;27.61;75.38;98651.06;5019979;28;19932;-42
2023/06/18 04:20:05;;;;;;;;;;;;;;;27.75;73.91;98639.78;5018128;28;19928;-42
2023/06/18 04:22:31;;;;;;;;;;;;;;;27.79;75.07;98657.00;5018197;28;19940;-42
2023/06/18 04:24:56;;;;;;;;;;;;;;;27.91;73.83;98647.72;5020025;28;19964;-42
2023/06/18 04:27:21;;;;;;;;;;;;;;;27.97;73.24;98640.94;5023325;28;19963;-42
2023/06/18 04:29:46;;;;;;;;;;;;;;;28.06;71.50;98639.13;5021752;28;20255;-42
2023/06/18 04:32:11;;;;;;;;;;;;;;;27.73;74.14;98655.00;5021682;28;19964;-42
2023/06/18 04:34:37;;;;;;;;;;;;;;;28.02;73.88;98653.69;5020507;28;19921;-42
2023/06/18 04:37:02;;;;;;;;;;;;;;;28.13;72.67;98642.72;5022348;28;19917;-42
2023/06/18 04:39:27;;;;;;;;;;;;;;;28.23;74.03;98656.56;5022094;28;19998;-42
2023/06/18 04:41:53;;;;;;;;;;;;;;;28.19;73.11;98650.00;5021774;28;19920;-43
2023/06/18 04:44:18;;;;;;;;;;;;;;;28.44;72.86;98641.94;5022218;28;19913;-42
2023/06/18 04:46:43;;;;;;;;;;;;;;;28.38;71.01;98640.81;5022099;28;19929;-42
2023/06/18 04:49:08;;;;;;;;;;;;;;;28.28;69.41;98633.09;5022605;28;20242;-42
2023/06/18 04:51:34;;;;;;;;;;;;;;;28.62;72.34;98649.66;5021942;28;19921;-42
2023/06/18 04:53:59;;;;;;;;;;;;;;;28.55;73.28;98654.84;5020907;28;20031;-42
2023/06/18 04:56:24;;;;;;;;;;;;;;;28.70;72.15;98647.81;5021817;28;19920;-42
2023/06/18 04:58:49;;;;;;;;;;;;;;;28.82;70.82;98642.13;5021037;28;19952;-42
2023/06/18 05:01:15;;;;;;;;;;;;;;;28.78;71.38;98647.78;5021637;28;19928;-42
2023/06/18 05:03:40;;;;;;;;;;;;;;;28.96;70.33;98641.34;5019863;28;19964;-42
2023/06/18 05:06:06;;;;;;;;;;;;;;;29.12;69.31;98648.41;5020621;28;19928;-43
2023/06/18 05:08:31;;;;;;;;;;;;;;;29.10;70.23;98643.28;5022054;28;19917;-42
2023/06/18 05:10:56;;;;;;;;;;;;;;;29.10;69.01;98637.16;5022007;28;19935;-42
2023/06/18 05:13:21;;;;;;;;;;;;;;;29.33;67.74;98629.19;5019044;28;20401;-42
2023/06/18 05:15:47;;;;;;;;;;;;;;;29.37;68.10;98643.75;5020747;28;20859;-42
2023/06/18 05:18:12;;;;;;;;;;;;;;;29.53;68.99;98648.09;5018617;28;20273;-42
2023/06/18 05:20:37;;;;;;;;;;;;;;;29.23;67.92;98649.81;5019080;28;19921;-42
2023/06/18 05:23:02;;;;;;;;;;;;;;;29.52;67.81;98636.66;5020793;28;20403;-42
2023/06/18 05:25:27;;;;;;;;;;;;;;;29.62;68.92;98654.97;5021647;28;19921;-42
2023/06/18 05:27:53;;;;;;;;;;;;;;;29.55;70.17;98668.13;5021777;28;19925;-42
2023/06/18 05:30:18;;;;;;;;;;;;;;;29.66;68.20;98661.56;5021274;28;19928;-42
2023/06/18 05:32:43;;;;;;;;;;;;;;;29.53;69.06;98672.78;5019989;28;19984;-42
2023/06/18 05:35:08;;;;;;;;;;;;;;;30.06;67.26;98653.41;5019025;28;19921;-42
2023/06/18 05:37:34;;;;;;;;;;;;;;;30.19;67.26;98657.06;5021198;28;19928;-42
2023/06/18 05:39:59;;;;;;;;;;;;;;;30.34;65.93;98646.47;5021406;28;19921;-42
2023/06/18 05:42:24;;;;;;;;;;;;;;;30.59;67.89;98662.13;5021180;28;19925;-42
2023/06/18 05:44:50;;;;;;;;;;;;;;;30.64;67.48;98657.06;5018462;28;19925;-42
2023/06/18 05:47:15;;;;;;;;;;;;;;;30.58;66.94;98655.94;5021409;28;20051;-42
2023/06/18 05:49:40;;;;;;;;;;;;;;;31.22;66.66;98652.56;5020939;28;20083;-42
2023/06/18 05:52:05;;;;;;;;;;;;;;;30.81;67.50;98671.78;5019691;28;19928;-42
2023/06/18 05:54:31;;;;;;;;;;;;;;;30.92;65.62;98659.03;5019424;28;19927;-43
2023/06/18 05:56:56;;;;;;;;;;;;;;;31.08;64.84;98650.00;5021133;28;19921;-43
2023/06/18 05:59:22;;;;;;;;;;;;;;;31.15;67.08;98667.66;5020698;28;20361;-42
2023/06/18 06:01:47;;;;;;;;;;;;;;;31.37;67.63;98672.97;5020862;28;20302;-42
2023/06/18 06:04:12;;;;;;;;;;;;;;;31.51;65.69;98664.13;5019766;28;19968;-42
2023/06/18 06:06:37;;;;;;;;;;;;;;;31.50;65.05;98656.31;5020929;28;20378;-43
2023/06/18 06:09:03;;;;;;;;;;;;;;;31.14;63.71;98663.34;5018624;28;20495;-43
2023/06/18 06:11:28;;;;;;;;;;;;;;;30.78;62.54;98656.19;5021147;28;19956;-42
2023/06/18 06:13:53;;;;;;;;;;;;;;;30.68;61.32;98658.34;5019822;28;19955;-42
2023/06/18 06:16:18;;;;;;;;;;;;;;;31.08;61.91;98650.00;5020201;28;19932;-43
2023/06/18 06:18:44;;;;;;;;;;;;;;;31.20;61.35;98651.13;5018846;28;19917;-43
2023/06/18 06:21:09;;;;;;;;;;;;;;;29.53;68.00;98696.66;5020723;28;19943;-42
2023/06/18 06:23:34;;;;;;;;;;;;;;;30.62;67.36;98677.69;5019287;28;19921;-43
2023/06/18 06:26:00;;;;;;;;;;;;;;;30.82;64.77;98670.75;5019163;28;20015;-43
2023/06/18 06:28:25;;;;;;;;;;;;;;;30.55;67.32;98677.59;5020329;28;19925;-42
2023/06/18 06:30:50;;;;;;;;;;;;;;;29.96;67.84;98694.31;5019688;28;19961;-43
2023/06/18 06:33:15;;;;;;;;;;;;;;;31.06;65.53;98663.47;5020502;28;20406;-42
2023/06/18 06:35:41;;;;;;;;;;;;;;;31.03;66.66;98677.16;5016926;28;19976;-43
2023/06/18 06:38:06;;;;;;;;;;;;;;;30.85;65.90;98673.06;5018648;28;20380;-43
2023/06/18 06:40:31;;;;;;;;;;;;;;;32.12;64.04;98657.41;5020354;28;20039;-43
2023/06/18 06:42:56;;;;;;;;;;;;;;;32.52;62.74;98655.78;5019669;28;19928;-43
2023/06/18 06:45:22;;;;;;;;;;;;;;;32.88;62.13;98655.50;5015869;28;19921;-43
2023/06/18 06:47:48;;;;;;;;;;;;;;;31.74;64.27;98673.72;5019442;28;20075;-43
2023/06/18 06:50:13;;;;;;;;;;;;;;;32.22;64.94;98668.53;5020853;28;19913;-43
2023/06/18 06:52:38;;;;;;;;;;;;;;;31.66;64.26;98674.69;5021296;28;19924;-43
2023/06/18 06:55:04;;;;;;;;;;;;;;;33.36;61.91;98651.09;5018607;28;20310;-43
2023/06/18 06:57:29;;;;;;;;;;;;;;;32.84;64.21;98670.25;5018885;28;20302;-43
2023/06/18 06:59:54;;;;;;;;;;;;;;;32.15;65.68;98681.00;5018166;28;19925;-43
2023/06/18 07:02:20;;;;;;;;;;;;;;;31.63;67.50;98694.50;5018016;28;20329;-43
2023/06/18 07:04:47;;;;;;;;;;;;;;;32.31;63.45;98675.34;5020070;28;19966;-43
2023/06/18 07:07:13;;;;;;;;;;;;;;;32.84;62.14;98672.09;5018182;28;19928;-43
2023/06/18 07:09:39;;;;;;;;;;;;;;;33.56;60.26;98664.44;5019572;28;19923;-43
2023/06/18 07:12:04;;;;;;;;;;;;;;;31.90;64.70;98689.41;5017489;28;19921;-43
2023/06/18 07:14:29;;;;;;;;;;;;;;;32.52;66.75;98676.28;5018631;28;19916;-43
2023/06/18 07:16:54;;;;;;;;;;;;;;;30.67;70.11;98709.84;5017494;28;19921;-43
2023/06/18 07:19:20;;;;;;;;;;;;;;;31.13;70.61;98698.94;5018654;28;19925;-43
2023/06/18 07:21:45;;;;;;;;;;;;;;;31.30;68.44;98696.06;5019448;28;19975;-43
2023/06/18 07:24:10;;;;;;;;;;;;;;;31.56;67.01;98688.31;5019705;28;19928;-43
2023/06/18 07:26:35;;;;;;;;;;;;;;;32.70;66.56;98680.03;5019822;28;19952;-43
2023/06/18 07:29:01;;;;;;;;;;;;;;;32.68;65.78;98683.94;5018447;28;19921;-43
2023/06/18 07:31:26;;;;;;;;;;;;;;;32.81;62.88;98670.66;5020824;28;20386;-43
2023/06/18 07:33:51;;;;;;;;;;;;;;;34.06;59.64;98662.97;5016757;28;20396;-43
2023/06/18 07:36:16;;;;;;;;;;;;;;;32.78;61.36;98676.41;5016663;28;20020;-44
2023/06/18 07:38:42;;;;;;;;;;;;;;;32.44;62.93;98686.06;5015220;28;20453;-43
2023/06/18 07:41:07;;;;;;;;;;;;;;;34.55;54.99;98634.03;5019166;28;20437;-43
2023/06/18 07:43:32;;;;;;;;;;;;;;;34.91;55.41;98649.50;5017773;28;20389;-44
2023/06/18 07:45:58;;;;;;;;;;;;;;;34.52;56.06;98662.00;5017407;28;19936;-44
2023/06/18 07:48:23;;;;;;;;;;;;;;;35.71;54.27;98648.94;5013699;28;19925;-43
2023/06/18 07:50:48;;;;;;;;;;;;;;;35.44;53.41;98642.16;5016698;28;19921;-43
2023/06/18 07:53:14;;;;;;;;;;;;;;;35.02;50.19;98641.84;5019400;28;19917;-43
2023/06/18 07:55:39;;;;;;;;;;;;;;;35.84;48.50;98625.75;5016526;28;19921;-44
2023/06/18 07:58:04;;;;;;;;;;;;;;;35.69;47.22;98637.63;5018880;28;20357;-45
2023/06/18 08:00:29;;;;;;;;;;;;;;;36.85;48.67;98630.53;5019663;28;20142;-44
2023/06/18 08:02:55;;;;;;;;;;;;;;;34.92;49.73;98648.47;5021410;28;19921;-44
2023/06/18 08:05:20;;;;;;;;;;;;;;;37.00;46.50;98624.75;5023661;28;19972;-44
2023/06/18 08:07:45;;;;;;;;;;;;;;;36.60;46.96;98630.66;5021841;28;20024;-44
2023/06/18 08:10:10;;;;;;;;;;;;;;;37.52;45.18;98615.25;5021601;28;19917;-43
2023/06/18 08:12:35;;;;;;;;;;;;;;;37.68;44.35;98619.97;5020777;28;20271;-44
2023/06/18 08:15:01;;;;;;;;;;;;;;;37.13;43.12;98614.88;5021643;28;19921;-44
2023/06/18 08:17:26;;;;;;;;;;;;;;;35.79;44.54;98624.56;5017128;28;19931;-46
2023/06/18 08:19:51;;;;;;;;;;;;;;;36.32;45.32;98630.41;5019020;28;19921;-44
2023/06/18 08:22:17;;;;;;;;;;;;;;;34.18;47.25;98640.97;5016478;28;19931;-44
2023/06/18 08:24:42;;;;;;;;;;;;;;;34.20;46.69;98647.75;5019787;28;19925;-44
2023/06/18 08:27:08;;;;;;;;;;;;;;;36.75;42.94;98605.31;5020072;28;19925;-43
2023/06/18 08:29:33;;;;;;;;;;;;;;;37.52;41.42;98604.50;5022110;28;19921;-44
2023/06/18 08:32:04;;;;;;;;;;;;;;;38.10;40.68;98606.38;5019217;28;20336;-43
2023/06/18 08:34:30;;;;;;;;;;;;;;;37.08;42.56;98625.50;5016145;28;19921;-44
2023/06/18 08:36:55;;;;;;;;;;;;;;;37.69;41.45;98615.41;5021274;28;19921;-44
2023/06/18 08:39:20;;;;;;;;;;;;;;;37.69;38.68;98604.66;5019635;28;19929;-44
2023/06/18 08:41:45;;;;;;;;;;;;;;;36.08;37.43;98603.41;5020603;28;20082;-44
2023/06/18 08:44:11;;;;;;;;;;;;;;;37.59;41.60;98610.59;5020683;28;19925;-44
2023/06/18 08:46:36;;;;;;;;;;;;;;;38.35;38.12;98586.44;5021049;28;19975;-43
2023/06/18 08:49:02;;;;;;;;;;;;;;;37.96;37.65;98586.16;5021605;28;20039;-45
2023/06/18 08:51:27;;;;;;;;;;;;;;;38.88;36.48;98577.16;5021672;28;19925;-44
2023/06/18 08:53:52;;;;;;;;;;;;;;;39.66;36.03;98577.31;5022072;28;19931;-43
2023/06/18 08:56:18;;;;;;;;;;;;;;;39.13;37.06;98586.75;5021813;28;19920;-45
2023/06/18 08:58:53;;;;;;;;;;;;;;;36.36;36.64;98591.38;5020334;28;19943;-44
2023/06/18 09:01:18;;;;;;;;;;;;;;;38.75;34.44;98564.03;5021098;28;19924;-45
2023/06/18 09:03:44;;;;;;;;;;;;;;;39.19;34.56;98564.25;5019705;28;19921;-44
2023/06/18 09:06:09;;;;;;;;;;;;;;;37.40;33.92;98575.78;5018728;28;20259;-45
2023/06/18 09:08:35;;;;;;;;;;;;;;;37.53;35.84;98592.72;5013996;28;20553;-44
2023/06/18 09:11:00;;;;;;;;;;;;;;;35.38;41.09;98633.97;5016198;28;19928;-45
2023/06/18 09:13:26;;;;;;;;;;;;;;;37.37;35.20;98565.50;5019646;28;19921;-44
2023/06/18 09:15:51;;;;;;;;;;;;;;;37.54;36.21;98581.75;5022146;28;19917;-44
2023/06/18 09:18:16;;;;;;;;;;;;;;;33.66;37.27;98609.59;5020239;28;20001;-44
2023/06/18 09:20:42;;;;;;;;;;;;;;;35.68;34.59;98569.03;5018509;28;19948;-44
2023/06/18 09:23:08;;;;;;;;;;;;;;;36.91;34.57;98569.75;5018435;28;19927;-45
2023/06/18 09:25:34;;;;;;;;;;;;;;;36.92;32.05;98559.84;5016949;28;19921;-45
2023/06/18 09:28:00;;;;;;;;;;;;;;;34.32;34.24;98576.53;5017310;28;20408;-44
2023/06/18 09:30:25;;;;;;;;;;;;;;;36.38;33.84;98562.44;5014547;28;19948;-45
2023/06/18 09:32:50;;;;;;;;;;;;;;;37.77;32.64;98554.06;5016935;28;20664;-44
2023/06/18 09:35:16;;;;;;;;;;;;;;;36.02;32.48;98574.84;5017073;28;19920;-44
2023/06/18 09:37:41;;;;;;;;;;;;;;;35.76;32.74;98574.06;5016096;28;20465;-44
2023/06/18 09:40:07;;;;;;;;;;;;;;;36.81;33.54;98577.53;5017236;28;19971;-44
2023/06/18 09:42:33;;;;;;;;;;;;;;;35.22;33.09;98578.28;5018227;28;19927;-44
2023/06/18 09:44:58;;;;;;;;;;;;;;;37.75;32.99;98561.53;5017334;28;19924;-45
2023/06/18 09:47:23;;;;;;;;;;;;;;;36.96;35.19;98585.97;5018968;28;19927;-44
2023/06/18 09:49:48;;;;;;;;;;;;;;;38.51;31.92;98542.63;5018897;28;20004;-45
2023/06/18 09:52:13;;;;;;;;;;;;;;;37.89;31.08;98545.97;5021323;28;19963;-44
2023/06/18 09:54:40;;;;;;;;;;;;;;;39.31;30.77;98540.72;5020513;28;19964;-44
2023/06/18 09:57:06;;;;;;;;;;;;;;;38.19;30.07;98545.78;5020526;28;19921;-47
2023/06/18 09:59:31;;;;;;;;;;;;;;;36.43;33.70;98589.41;5018338;28;19943;-45
2023/06/18 10:01:56;;;;;;;;;;;;;;;35.22;32.69;98570.25;5021432;28;19984;-45
2023/06/18 10:04:22;;;;;;;;;;;;;;;36.74;32.95;98563.41;5019505;28;20405;-45
2023/06/18 10:06:54;;;;;;;;;;;;;;;38.99;32.21;98548.56;5018670;28;20390;-44
2023/06/18 10:09:19;;;;;;;;;;;;;;;37.14;29.79;98544.84;5018928;28;19921;-45
2023/06/18 10:11:45;;;;;;;;;;;;;;;39.48;28.38;98519.97;5020701;28;19921;-45
2023/06/18 10:14:11;;;;;;;;;;;;;;;41.34;28.92;98535.06;5019520;28;19917;-44
2023/06/18 10:16:36;;;;;;;;;;;;;;;41.76;30.15;98544.22;5020749;28;19913;-45
2023/06/18 10:19:14;;;;;;;;;;;;;;;38.62;32.15;98582.13;5010794;28;19921;-45
2023/06/18 10:21:58;;;;;;;;;;;;;;;36.60;32.15;98566.28;5012701;28;19918;-46
2023/06/18 10:24:34;;;;;;;;;;;;;;;41.01;29.97;98530.78;5017359;28;19924;-45
2023/06/18 10:27:00;;;;;;;;;;;;;;;38.05;29.52;98541.75;5017047;28;19967;-46
2023/06/18 10:29:25;;;;;;;;;;;;;;;39.33;29.43;98528.63;5019158;28;20020;-46
2023/06/18 10:31:50;;;;;;;;;;;;;;;40.16;32.30;98554.78;5016181;28;19971;-47
2023/06/18 10:34:16;;;;;;;;;;;;;;;38.23;31.13;98546.94;5015872;28;20031;-44
2023/06/18 10:36:42;;;;;;;;;;;;;;;40.30;29.40;98512.88;5018868;28;19924;-44
2023/06/18 10:39:07;;;;;;;;;;;;;;;40.98;28.15;98513.19;5018592;28;20034;-44
2023/06/18 10:41:32;;;;;;;;;;;;;;;40.68;28.95;98527.25;5019664;28;19924;-46
2023/06/18 10:43:58;;;;;;;;;;;;;;;39.75;27.49;98503.03;5019081;28;19917;-45
2023/06/18 10:46:23;;;;;;;;;;;;;;;37.98;28.93;98525.72;5019947;28;20374;-45
2023/06/18 10:49:07;;;;;;;;;;;;;;;36.98;31.98;98550.88;5017562;28;20435;-45
2023/06/18 10:51:32;;;;;;;;;;;;;;;37.40;29.56;98540.84;5014287;28;20364;-45
2023/06/18 10:54:17;;;;;;;;;;;;;;;39.51;28.60;98511.38;5018742;28;20023;-46
2023/06/18 10:57:09;;;;;;;;;;;;;;;39.38;26.40;98486.69;5020486;28;19917;-45
2023/06/18 10:59:40;;;;;;;;;;;;;;;41.51;25.50;98475.44;5018034;28;19988;-46
2023/06/18 11:02:06;;;;;;;;;;;;;;;40.10;27.46;98504.56;5020796;28;19924;-46
2023/06/18 11:04:31;;;;;;;;;;;;;;;38.94;27.81;98508.94;5020162;28;20491;-47
2023/06/18 11:07:15;;;;;;;;;;;;;;;42.09;28.70;98512.47;5020961;28;20378;-45
2023/06/18 11:09:46;;;;;;;;;;;;;;;41.84;26.74;98484.22;5020005;28;19925;-45
2023/06/18 11:12:21;;;;;;;;;;;;;;;37.55;27.39;98502.00;5019630;28;19986;-46
2023/06/18 11:15:05;;;;;;;;;;;;;;;38.66;28.07;98502.53;5020302;28;20406;-46
2023/06/18 11:17:33;;;;;;;;;;;;;;;39.31;28.34;98500.28;5020646;28;19925;-48
2023/06/18 11:20:00;;;;;;;;;;;;;;;42.19;27.86;98499.75;5019296;28;20003;-46
2023/06/18 11:22:25;;;;;;;;;;;;;;;39.99;27.64;98498.22;5020470;28;19975;-46
2023/06/18 11:24:51;;;;;;;;;;;;;;;42.58;29.22;98509.28;5018348;28;20582;-45
2023/06/18 11:27:16;;;;;;;;;;;;;;;40.27;27.00;98502.59;5019148;28;19921;-46
2023/06/18 11:29:42;;;;;;;;;;;;;;;40.93;26.86;98490.75;5019700;28;19976;-45
2023/06/18 11:32:13;;;;;;;;;;;;;;;39.69;30.54;98525.63;5019719;28;19917;-45
2023/06/18 11:34:42;;;;;;;;;;;;;;;40.22;30.15;98507.91;5022527;28;19921;-47
2023/06/18 11:37:07;;;;;;;;;;;;;;;39.46;29.52;98508.63;5022844;28;19917;-46
2023/06/18 11:39:33;;;;;;;;;;;;;;;39.81;29.48;98490.44;5023024;28;19924;-45
2023/06/18 11:42:11;;;;;;;;;;;;;;;39.00;29.50;98507.91;5022418;28;19920;-46
2023/06/18 11:44:44;;;;;;;;;;;;;;;38.42;29.83;98501.81;5022816;28;19928;-47
2023/06/18 11:47:09;;;;;;;;;;;;;;;39.35;27.70;98477.19;5025028;28;19916;-45
2023/06/18 11:49:34;;;;;;;;;;;;;;;38.17;27.47;98480.66;5024237;28;20875;-47
2023/06/18 11:51:59;;;;;;;;;;;;;;;41.22;27.87;98471.50;5023179;28;19959;-47
2023/06/18 11:54:25;;;;;;;;;;;;;;;39.52;28.06;98485.25;5023537;28;20373;-45
2023/06/18 11:56:53;;;;;;;;;;;;;;;39.10;29.34;98491.94;5022748;28;20000;-46
2023/06/18 11:59:19;;;;;;;;;;;;;;;41.28;26.87;98440.72;5023342;28;20385;-45
2023/06/18 12:01:45;;;;;;;;;;;;;;;41.71;26.60;98452.28;5021941;28;19921;-46
2023/06/18 12:04:10;;;;;;;;;;;;;;;39.48;27.26;98460.69;5023288;28;19928;-47
2023/06/18 12:06:36;;;;;;;;;;;;;;;41.52;28.03;98457.34;5022969;28;19921;-45
2023/06/18 12:09:05;;;;;;;;;;;;;;;39.91;28.31;98467.13;5023854;28;19932;-45
2023/06/18 12:11:33;;;;;;;;;;;;;;;40.31;30.60;98484.03;5020693;28;19940;-45
2023/06/18 12:13:59;;;;;;;;;;;;;;;41.66;29.82;98461.19;5022372;28;19968;-46
2023/06/18 12:16:25;;;;;;;;;;;;;;;41.75;27.27;98442.56;5022507;28;19924;-45
2023/06/18 12:18:57;;;;;;;;;;;;;;;40.61;29.49;98459.16;5021325;28;19925;-46
2023/06/18 12:21:23;;;;;;;;;;;;;;;39.30;29.14;98458.25;5021933;28;19947;-46
2023/06/18 12:23:48;;;;;;;;;;;;;;;41.67;29.45;98459.28;5019550;28;19921;-45
2023/06/18 12:26:13;;;;;;;;;;;;;;;40.03;30.75;98455.38;5023341;28;19927;-46
2023/06/18 12:28:39;;;;;;;;;;;;;;;41.02;28.65;98440.56;5021748;28;19955;-47
2023/06/18 12:31:07;;;;;;;;;;;;;;;39.34;29.58;98454.00;5023376;28;19963;-46
2023/06/18 12:33:37;;;;;;;;;;;;;;;40.62;27.83;98436.50;5021683;28;19975;-46
2023/06/18 12:36:02;;;;;;;;;;;;;;;39.36;29.90;98457.25;5020730;28;19947;-47
2023/06/18 12:38:29;;;;;;;;;;;;;;;42.52;27.00;98418.34;5023041;28;19920;-49
2023/06/18 12:41:00;;;;;;;;;;;;;;;43.41;26.71;98421.41;5021580;28;19917;-46
2023/06/18 12:43:25;;;;;;;;;;;;;;;44.51;26.37;98424.00;5022549;28;19995;-46